Terminal Aerodrome Forecast
Issued by NWS

Home | Current Version | Previous Version | Text Only | Print | Product List | Glossary On
Versions: 1 2 3 4 5 6 7 8 9 10 11 12 13 14 15 16 17 18 19 20 21
000
FTUS41 KOKX 282300
TAFSWF
TAF
KSWF 282326Z 2900/3006 28012G20KT P6SM SCT025 BKN050
     FM290200 29010KT P6SM BKN040
     FM290700 27007KT P6SM SCT070
     FM300100 VRB04KT P6SM SCT070
      AMD NOT SKED=

USA.gov is the U.S. government's official web portal to all federal, state and local government web resources and services.